sensor_id;sensor_type;location;lat;lon;timestamp;temperature;humidity
7317;DHT22;3699;51.462;6.696;2022-07-29T00:01:26;20.00;81.30
7317;DHT22;3699;51.462;6.696;2022-07-29T00:03:54;20.00;80.20
7317;DHT22;3699;51.462;6.696;2022-07-29T00:06:21;20.00;80.30
7317;DHT22;3699;51.462;6.696;2022-07-29T00:08:48;20.00;80.30
7317;DHT22;3699;51.462;6.696;2022-07-29T00:11:15;20.00;81.00
7317;DHT22;3699;51.462;6.696;2022-07-29T00:13:42;20.00;80.60
7317;DHT22;3699;51.462;6.696;2022-07-29T00:16:09;20.00;81.70
7317;DHT22;3699;51.462;6.696;2022-07-29T00:18:35;19.90;80.00
7317;DHT22;3699;51.462;6.696;2022-07-29T00:21:04;19.90;81.50
7317;DHT22;3699;51.462;6.696;2022-07-29T00:23:30;19.90;80.30
7317;DHT22;3699;51.462;6.696;2022-07-29T00:25:57;19.90;80.60
7317;DHT22;3699;51.462;6.696;2022-07-29T00:28:24;19.90;81.10
7317;DHT22;3699;51.462;6.696;2022-07-29T00:30:51;19.90;80.50
7317;DHT22;3699;51.462;6.696;2022-07-29T00:33:18;19.80;80.70
7317;DHT22;3699;51.462;6.696;2022-07-29T00:35:45;19.90;81.80
7317;DHT22;3699;51.462;6.696;2022-07-29T00:38:13;19.90;81.90
7317;DHT22;3699;51.462;6.696;2022-07-29T00:40:43;19.90;82.00
7317;DHT22;3699;51.462;6.696;2022-07-29T00:43:10;19.80;81.90
7317;DHT22;3699;51.462;6.696;2022-07-29T00:45:37;19.80;82.00
7317;DHT22;3699;51.462;6.696;2022-07-29T00:48:05;19.80;82.60
7317;DHT22;3699;51.462;6.696;2022-07-29T00:50:33;19.70;83.00
7317;DHT22;3699;51.462;6.696;2022-07-29T00:53:00;19.70;82.90
7317;DHT22;3699;51.462;6.696;2022-07-29T00:55:29;19.70;83.50
7317;DHT22;3699;51.462;6.696;2022-07-29T00:57:57;19.60;84.30
7317;DHT22;3699;51.462;6.696;2022-07-29T01:00:27;19.60;84.70
7317;DHT22;3699;51.462;6.696;2022-07-29T01:02:54;19.60;85.60
7317;DHT22;3699;51.462;6.696;2022-07-29T01:05:22;19.60;86.80
7317;DHT22;3699;51.462;6.696;2022-07-29T01:07:52;19.50;86.30
7317;DHT22;3699;51.462;6.696;2022-07-29T01:10:20;19.50;87.10
7317;DHT22;3699;51.462;6.696;2022-07-29T01:12:51;19.50;86.70
7317;DHT22;3699;51.462;6.696;2022-07-29T01:15:19;19.50;86.90
7317;DHT22;3699;51.462;6.696;2022-07-29T01:17:51;19.50;86.60
7317;DHT22;3699;51.462;6.696;2022-07-29T01:20:24;19.50;87.00
7317;DHT22;3699;51.462;6.696;2022-07-29T01:26:08;19.50;88.20
7317;DHT22;3699;51.462;6.696;2022-07-29T01:29:00;19.50;90.50
7317;DHT22;3699;51.462;6.696;2022-07-29T01:31:31;19.50;90.30
7317;DHT22;3699;51.462;6.696;2022-07-29T01:34:03;19.40;90.20
7317;DHT22;3699;51.462;6.696;2022-07-29T01:36:33;19.40;90.30
7317;DHT22;3699;51.462;6.696;2022-07-29T01:39:06;19.30;90.70
7317;DHT22;3699;51.462;6.696;2022-07-29T01:41:37;19.30;91.10
7317;DHT22;3699;51.462;6.696;2022-07-29T01:44:12;19.30;91.20
7317;DHT22;3699;51.462;6.696;2022-07-29T01:46:44;19.30;91.30
7317;DHT22;3699;51.462;6.696;2022-07-29T01:49:16;19.30;91.80
7317;DHT22;3699;51.462;6.696;2022-07-29T01:51:47;19.30;92.10
7317;DHT22;3699;51.462;6.696;2022-07-29T01:54:19;19.30;91.70
7317;DHT22;3699;51.462;6.696;2022-07-29T01:56:50;19.30;91.80
7317;DHT22;3699;51.462;6.696;2022-07-29T01:59:21;19.30;92.10
7317;DHT22;3699;51.462;6.696;2022-07-29T02:01:49;19.30;92.10
7317;DHT22;3699;51.462;6.696;2022-07-29T02:04:19;19.30;92.60
7317;DHT22;3699;51.462;6.696;2022-07-29T02:06:49;19.30;93.00
7317;DHT22;3699;51.462;6.696;2022-07-29T02:09:17;19.30;92.70
7317;DHT22;3699;51.462;6.696;2022-07-29T02:11:49;19.30;92.80
7317;DHT22;3699;51.462;6.696;2022-07-29T02:14:21;19.40;93.00
7317;DHT22;3699;51.462;6.696;2022-07-29T02:16:51;19.40;93.40
7317;DHT22;3699;51.462;6.696;2022-07-29T02:19:21;19.40;92.90
7317;DHT22;3699;51.462;6.696;2022-07-29T02:21:48;19.40;92.90
7317;DHT22;3699;51.462;6.696;2022-07-29T02:24:18;19.40;93.90
7317;DHT22;3699;51.462;6.696;2022-07-29T02:26:45;19.40;93.80
7317;DHT22;3699;51.462;6.696;2022-07-29T02:29:15;19.50;94.30
7317;DHT22;3699;51.462;6.696;2022-07-29T02:31:44;19.50;95.10
7317;DHT22;3699;51.462;6.696;2022-07-29T02:34:13;19.50;96.30
7317;DHT22;3699;51.462;6.696;2022-07-29T02:36:43;19.40;96.70
7317;DHT22;3699;51.462;6.696;2022-07-29T02:39:11;19.40;96.30
7317;DHT22;3699;51.462;6.696;2022-07-29T02:41:42;19.50;96.80
7317;DHT22;3699;51.462;6.696;2022-07-29T02:44:12;19.40;95.90
7317;DHT22;3699;51.462;6.696;2022-07-29T02:46:47;19.40;96.10
7317;DHT22;3699;51.462;6.696;2022-07-29T02:49:25;19.40;96.50
7317;DHT22;3699;51.462;6.696;2022-07-29T02:52:00;19.40;97.50
7317;DHT22;3699;51.462;6.696;2022-07-29T02:54:32;19.30;98.30
7317;DHT22;3699;51.462;6.696;2022-07-29T02:57:05;19.30;98.90
7317;DHT22;3699;51.462;6.696;2022-07-29T02:59:36;19.20;99.90
7317;DHT22;3699;51.462;6.696;2022-07-29T03:02:07;19.20;99.90
7317;DHT22;3699;51.462;6.696;2022-07-29T03:04:35;19.20;99.90
7317;DHT22;3699;51.462;6.696;2022-07-29T03:07:05;19.10;99.90
7317;DHT22;3699;51.462;6.696;2022-07-29T03:09:32;19.00;99.90
7317;DHT22;3699;51.462;6.696;2022-07-29T03:12:00;18.90;99.90
7317;DHT22;3699;51.462;6.696;2022-07-29T03:14:28;18.80;99.90
7317;DHT22;3699;51.462;6.696;2022-07-29T03:16:56;18.60;99.90
7317;DHT22;3699;51.462;6.696;2022-07-29T03:19:26;18.50;99.90
7317;DHT22;3699;51.462;6.696;2022-07-29T03:21:55;18.40;99.90
7317;DHT22;3699;51.462;6.696;2022-07-29T03:24:27;18.30;99.90
7317;DHT22;3699;51.462;6.696;2022-07-29T03:26:55;18.30;99.90
7317;DHT22;3699;51.462;6.696;2022-07-29T03:29:22;18.20;99.90
7317;DHT22;3699;51.462;6.696;2022-07-29T03:31:49;18.10;99.90
7317;DHT22;3699;51.462;6.696;2022-07-29T03:34:16;18.10;99.90
7317;DHT22;3699;51.462;6.696;2022-07-29T03:36:45;18.00;99.90
7317;DHT22;3699;51.462;6.696;2022-07-29T03:39:14;18.00;99.90
7317;DHT22;3699;51.462;6.696;2022-07-29T03:41:44;18.00;99.90
7317;DHT22;3699;51.462;6.696;2022-07-29T03:44:13;18.00;99.90
7317;DHT22;3699;51.462;6.696;2022-07-29T03:46:43;17.90;99.90
7317;DHT22;3699;51.462;6.696;2022-07-29T03:49:11;18.00;99.90
7317;DHT22;3699;51.462;6.696;2022-07-29T03:51:39;18.00;99.90
7317;DHT22;3699;51.462;6.696;2022-07-29T03:54:07;18.00;99.90
7317;DHT22;3699;51.462;6.696;2022-07-29T03:56:38;18.00;99.90
7317;DHT22;3699;51.462;6.696;2022-07-29T03:59:06;18.10;99.90
7317;DHT22;3699;51.462;6.696;2022-07-29T04:01:34;18.10;99.90
7317;DHT22;3699;51.462;6.696;2022-07-29T04:04:02;18.10;99.90
7317;DHT22;3699;51.462;6.696;2022-07-29T04:06:38;18.10;99.90
7317;DHT22;3699;51.462;6.696;2022-07-29T04:09:06;18.10;99.90
7317;DHT22;3699;51.462;6.696;2022-07-29T04:11:34;18.00;99.90
7317;DHT22;3699;51.462;6.696;2022-07-29T04:14:02;18.10;99.90
7317;DHT22;3699;51.462;6.696;2022-07-29T04:16:29;18.10;99.90
7317;DHT22;3699;51.462;6.696;2022-07-29T04:18:56;18.10;99.90
7317;DHT22;3699;51.462;6.696;2022-07-29T04:21:23;18.10;99.90
7317;DHT22;3699;51.462;6.696;2022-07-29T04:23:50;18.10;99.90
7317;DHT22;3699;51.462;6.696;2022-07-29T04:26:18;18.10;99.90
7317;DHT22;3699;51.462;6.696;2022-07-29T04:28:45;18.00;99.90
7317;DHT22;3699;51.462;6.696;2022-07-29T04:31:13;18.00;99.90
7317;DHT22;3699;51.462;6.696;2022-07-29T04:33:40;17.90;99.90
7317;DHT22;3699;51.462;6.696;2022-07-29T04:36:07;17.80;99.90
7317;DHT22;3699;51.462;6.696;2022-07-29T04:38:34;17.70;99.90
7317;DHT22;3699;51.462;6.696;2022-07-29T04:41:00;17.60;99.90
7317;DHT22;3699;51.462;6.696;2022-07-29T04:43:29;17.60;99.90
7317;DHT22;3699;51.462;6.696;2022-07-29T04:45:55;17.50;99.90
7317;DHT22;3699;51.462;6.696;2022-07-29T04:48:22;17.40;99.90
7317;DHT22;3699;51.462;6.696;2022-07-29T04:50:49;17.30;99.90
7317;DHT22;3699;51.462;6.696;2022-07-29T04:53:16;17.20;99.90
7317;DHT22;3699;51.462;6.696;2022-07-29T04:55:43;17.20;99.90
7317;DHT22;3699;51.462;6.696;2022-07-29T04:58:10;17.10;99.90
7317;DHT22;3699;51.462;6.696;2022-07-29T05:00:39;17.10;99.90
7317;DHT22;3699;51.462;6.696;2022-07-29T05:03:06;17.10;99.90
7317;DHT22;3699;51.462;6.696;2022-07-29T05:05:33;17.10;99.90
7317;DHT22;3699;51.462;6.696;2022-07-29T05:08:00;17.10;99.90
7317;DHT22;3699;51.462;6.696;2022-07-29T05:10:27;17.10;99.90
7317;DHT22;3699;51.462;6.696;2022-07-29T05:12:54;17.10;99.90
7317;DHT22;3699;51.462;6.696;2022-07-29T05:15:21;17.10;99.90
7317;DHT22;3699;51.462;6.696;2022-07-29T05:17:49;17.10;99.90
7317;DHT22;3699;51.462;6.696;2022-07-29T05:20:16;17.10;99.90
7317;DHT22;3699;51.462;6.696;2022-07-29T05:22:43;17.10;99.90
7317;DHT22;3699;51.462;6.696;2022-07-29T05:25:10;17.10;99.90
7317;DHT22;3699;51.462;6.696;2022-07-29T05:27:37;17.00;99.90
7317;DHT22;3699;51.462;6.696;2022-07-29T05:30:05;17.00;99.90
7317;DHT22;3699;51.462;6.696;2022-07-29T05:32:33;17.00;99.90
7317;DHT22;3699;51.462;6.696;2022-07-29T05:35:02;17.00;99.90
7317;DHT22;3699;51.462;6.696;2022-07-29T05:37:28;17.10;99.90
7317;DHT22;3699;51.462;6.696;2022-07-29T05:39:55;17.10;99.90
7317;DHT22;3699;51.462;6.696;2022-07-29T05:42:22;17.00;99.90
7317;DHT22;3699;51.462;6.696;2022-07-29T05:44:49;17.10;99.90
7317;DHT22;3699;51.462;6.696;2022-07-29T05:47:16;17.00;99.90
7317;DHT22;3699;51.462;6.696;2022-07-29T05:49:43;16.90;99.90
7317;DHT22;3699;51.462;6.696;2022-07-29T05:52:12;16.80;99.90
7317;DHT22;3699;51.462;6.696;2022-07-29T05:54:39;16.80;99.90
7317;DHT22;3699;51.462;6.696;2022-07-29T05:57:06;16.70;99.90
7317;DHT22;3699;51.462;6.696;2022-07-29T05:59:35;16.70;99.90
7317;DHT22;3699;51.462;6.696;2022-07-29T06:02:02;16.70;99.90
7317;DHT22;3699;51.462;6.696;2022-07-29T06:04:30;16.70;99.90
7317;DHT22;3699;51.462;6.696;2022-07-29T06:06:57;16.70;99.90
7317;DHT22;3699;51.462;6.696;2022-07-29T06:09:25;16.80;99.90
7317;DHT22;3699;51.462;6.696;2022-07-29T06:11:52;16.80;99.90
7317;DHT22;3699;51.462;6.696;2022-07-29T06:14:19;16.90;99.90
7317;DHT22;3699;51.462;6.696;2022-07-29T06:16:46;16.90;99.90
7317;DHT22;3699;51.462;6.696;2022-07-29T06:19:13;16.90;99.90
7317;DHT22;3699;51.462;6.696;2022-07-29T06:21:41;17.00;99.90
7317;DHT22;3699;51.462;6.696;2022-07-29T06:24:09;17.10;99.90
7317;DHT22;3699;51.462;6.696;2022-07-29T06:26:38;17.30;99.90
7317;DHT22;3699;51.462;6.696;2022-07-29T06:29:06;17.40;99.90
7317;DHT22;3699;51.462;6.696;2022-07-29T06:31:33;17.60;99.90
7317;DHT22;3699;51.462;6.696;2022-07-29T06:34:00;17.70;99.90
7317;DHT22;3699;51.462;6.696;2022-07-29T06:36:26;17.90;99.90
7317;DHT22;3699;51.462;6.696;2022-07-29T06:38:53;18.00;99.90
7317;DHT22;3699;51.462;6.696;2022-07-29T06:41:20;18.10;99.90
7317;DHT22;3699;51.462;6.696;2022-07-29T06:43:49;18.30;99.90
7317;DHT22;3699;51.462;6.696;2022-07-29T06:46:18;18.40;99.90
7317;DHT22;3699;51.462;6.696;2022-07-29T06:48:45;18.40;99.90
7317;DHT22;3699;51.462;6.696;2022-07-29T06:51:12;18.40;99.90
7317;DHT22;3699;51.462;6.696;2022-07-29T06:53:40;18.40;99.90
7317;DHT22;3699;51.462;6.696;2022-07-29T06:56:07;18.40;99.90
7317;DHT22;3699;51.462;6.696;2022-07-29T06:58:34;18.40;99.90
7317;DHT22;3699;51.462;6.696;2022-07-29T07:01:04;18.40;99.90
7317;DHT22;3699;51.462;6.696;2022-07-29T07:03:32;18.40;99.90
7317;DHT22;3699;51.462;6.696;2022-07-29T07:06:00;18.30;99.90
7317;DHT22;3699;51.462;6.696;2022-07-29T07:08:28;18.30;99.90
7317;DHT22;3699;51.462;6.696;2022-07-29T07:10:55;18.30;99.90
7317;DHT22;3699;51.462;6.696;2022-07-29T07:13:23;18.30;99.90
7317;DHT22;3699;51.462;6.696;2022-07-29T07:15:50;18.30;99.90
7317;DHT22;3699;51.462;6.696;2022-07-29T07:18:19;18.30;99.90
7317;DHT22;3699;51.462;6.696;2022-07-29T07:20:46;18.20;99.90
7317;DHT22;3699;51.462;6.696;2022-07-29T07:23:13;18.20;99.90
7317;DHT22;3699;51.462;6.696;2022-07-29T07:25:40;18.30;99.90
7317;DHT22;3699;51.462;6.696;2022-07-29T07:28:07;18.30;99.90
7317;DHT22;3699;51.462;6.696;2022-07-29T07:30:34;18.30;99.90
7317;DHT22;3699;51.462;6.696;2022-07-29T07:33:01;18.30;99.90
7317;DHT22;3699;51.462;6.696;2022-07-29T07:35:29;18.40;99.90
7317;DHT22;3699;51.462;6.696;2022-07-29T07:37:56;18.40;99.90
7317;DHT22;3699;51.462;6.696;2022-07-29T07:40:24;18.40;99.90
7317;DHT22;3699;51.462;6.696;2022-07-29T07:42:51;18.40;99.90
7317;DHT22;3699;51.462;6.696;2022-07-29T07:45:18;18.40;99.90
7317;DHT22;3699;51.462;6.696;2022-07-29T07:47:45;18.40;99.90
7317;DHT22;3699;51.462;6.696;2022-07-29T07:50:12;18.40;99.90
7317;DHT22;3699;51.462;6.696;2022-07-29T07:52:51;18.40;99.90
7317;DHT22;3699;51.462;6.696;2022-07-29T07:55:19;18.50;99.90
7317;DHT22;3699;51.462;6.696;2022-07-29T07:57:46;18.50;99.90
7317;DHT22;3699;51.462;6.696;2022-07-29T08:00:15;18.50;99.90
7317;DHT22;3699;51.462;6.696;2022-07-29T08:02:42;18.50;99.90
7317;DHT22;3699;51.462;6.696;2022-07-29T08:05:11;18.50;99.90
7317;DHT22;3699;51.462;6.696;2022-07-29T08:07:41;18.50;99.90
7317;DHT22;3699;51.462;6.696;2022-07-29T08:10:09;18.50;99.90
7317;DHT22;3699;51.462;6.696;2022-07-29T08:12:40;18.50;99.90
7317;DHT22;3699;51.462;6.696;2022-07-29T08:15:08;18.40;99.90
7317;DHT22;3699;51.462;6.696;2022-07-29T08:17:35;18.40;99.90
7317;DHT22;3699;51.462;6.696;2022-07-29T08:20:02;18.30;99.90
7317;DHT22;3699;51.462;6.696;2022-07-29T08:22:30;18.20;99.90
7317;DHT22;3699;51.462;6.696;2022-07-29T08:24:57;18.10;99.90
7317;DHT22;3699;51.462;6.696;2022-07-29T08:27:25;18.10;99.90
7317;DHT22;3699;51.462;6.696;2022-07-29T08:29:53;18.10;99.90
7317;DHT22;3699;51.462;6.696;2022-07-29T08:32:21;18.10;99.90
7317;DHT22;3699;51.462;6.696;2022-07-29T08:34:48;18.10;99.90
7317;DHT22;3699;51.462;6.696;2022-07-29T08:37:15;18.10;99.90
7317;DHT22;3699;51.462;6.696;2022-07-29T08:39:42;18.20;99.90
7317;DHT22;3699;51.462;6.696;2022-07-29T08:42:08;18.20;99.90
7317;DHT22;3699;51.462;6.696;2022-07-29T08:44:38;18.20;99.90
7317;DHT22;3699;51.462;6.696;2022-07-29T08:47:05;18.20;99.90
7317;DHT22;3699;51.462;6.696;2022-07-29T08:49:33;18.20;99.90
7317;DHT22;3699;51.462;6.696;2022-07-29T08:52:01;18.30;99.90
7317;DHT22;3699;51.462;6.696;2022-07-29T08:54:28;18.40;99.90
7317;DHT22;3699;51.462;6.696;2022-07-29T08:56:56;18.60;99.90
7317;DHT22;3699;51.462;6.696;2022-07-29T08:59:25;18.70;99.90
7317;DHT22;3699;51.462;6.696;2022-07-29T09:01:54;18.90;99.90
7317;DHT22;3699;51.462;6.696;2022-07-29T09:04:29;19.10;99.90
7317;DHT22;3699;51.462;6.696;2022-07-29T09:06:57;19.20;99.90
7317;DHT22;3699;51.462;6.696;2022-07-29T09:09:26;19.30;99.90
7317;DHT22;3699;51.462;6.696;2022-07-29T09:11:53;19.50;99.90
7317;DHT22;3699;51.462;6.696;2022-07-29T09:14:20;19.60;99.90
7317;DHT22;3699;51.462;6.696;2022-07-29T09:16:50;19.80;99.90
7317;DHT22;3699;51.462;6.696;2022-07-29T09:19:24;19.90;99.90
7317;DHT22;3699;51.462;6.696;2022-07-29T09:21:51;20.00;99.90
7317;DHT22;3699;51.462;6.696;2022-07-29T09:24:36;20.10;99.90
7317;DHT22;3699;51.462;6.696;2022-07-29T09:27:08;20.20;99.90
7317;DHT22;3699;51.462;6.696;2022-07-29T09:29:35;20.20;99.90
7317;DHT22;3699;51.462;6.696;2022-07-29T09:32:06;20.20;99.90
7317;DHT22;3699;51.462;6.696;2022-07-29T09:34:37;20.10;99.90
7317;DHT22;3699;51.462;6.696;2022-07-29T09:37:04;20.00;99.90
7317;DHT22;3699;51.462;6.696;2022-07-29T09:39:33;20.00;99.90
7317;DHT22;3699;51.462;6.696;2022-07-29T09:42:02;20.00;99.90
7317;DHT22;3699;51.462;6.696;2022-07-29T09:44:41;20.10;99.90
7317;DHT22;3699;51.462;6.696;2022-07-29T09:47:08;20.20;99.90
7317;DHT22;3699;51.462;6.696;2022-07-29T09:49:51;20.30;99.90
7317;DHT22;3699;51.462;6.696;2022-07-29T09:52:18;20.40;99.90
7317;DHT22;3699;51.462;6.696;2022-07-29T09:54:46;20.50;99.90
7317;DHT22;3699;51.462;6.696;2022-07-29T09:57:23;20.70;99.90
7317;DHT22;3699;51.462;6.696;2022-07-29T09:59:58;20.90;99.90
7317;DHT22;3699;51.462;6.696;2022-07-29T10:02:29;21.00;99.90
7317;DHT22;3699;51.462;6.696;2022-07-29T10:04:58;21.20;99.90
7317;DHT22;3699;51.462;6.696;2022-07-29T10:07:25;21.30;99.90
7317;DHT22;3699;51.462;6.696;2022-07-29T10:09:56;21.40;99.90
7317;DHT22;3699;51.462;6.696;2022-07-29T10:12:24;21.50;99.90
7317;DHT22;3699;51.462;6.696;2022-07-29T10:14:51;21.40;99.90
7317;DHT22;3699;51.462;6.696;2022-07-29T10:17:18;21.40;99.90
7317;DHT22;3699;51.462;6.696;2022-07-29T10:19:46;21.30;99.90
7317;DHT22;3699;51.462;6.696;2022-07-29T10:22:16;21.30;99.90
7317;DHT22;3699;51.462;6.696;2022-07-29T10:24:43;21.20;99.90
7317;DHT22;3699;51.462;6.696;2022-07-29T10:27:11;21.10;99.90
7317;DHT22;3699;51.462;6.696;2022-07-29T10:29:38;21.10;99.90
7317;DHT22;3699;51.462;6.696;2022-07-29T10:35:18;21.20;99.90
7317;DHT22;3699;51.462;6.696;2022-07-29T10:37:59;21.30;99.90
7317;DHT22;3699;51.462;6.696;2022-07-29T10:40:37;21.40;99.90
7317;DHT22;3699;51.462;6.696;2022-07-29T10:43:26;21.60;99.90
7317;DHT22;3699;51.462;6.696;2022-07-29T10:45:56;22.00;99.90
7317;DHT22;3699;51.462;6.696;2022-07-29T10:48:23;22.50;99.90
7317;DHT22;3699;51.462;6.696;2022-07-29T10:50:58;23.10;99.90
7317;DHT22;3699;51.462;6.696;2022-07-29T10:53:46;23.70;99.90
7317;DHT22;3699;51.462;6.696;2022-07-29T10:56:24;24.00;99.90
7317;DHT22;3699;51.462;6.696;2022-07-29T10:59:24;24.30;99.90
7317;DHT22;3699;51.462;6.696;2022-07-29T11:01:53;24.50;99.90
7317;DHT22;3699;51.462;6.696;2022-07-29T11:04:59;24.60;99.90
7317;DHT22;3699;51.462;6.696;2022-07-29T11:07:27;24.80;99.90
7317;DHT22;3699;51.462;6.696;2022-07-29T11:10:21;24.80;99.90
7317;DHT22;3699;51.462;6.696;2022-07-29T11:12:49;24.70;99.90
7317;DHT22;3699;51.462;6.696;2022-07-29T11:15:18;24.80;99.90
7317;DHT22;3699;51.462;6.696;2022-07-29T11:18:07;24.90;99.90
7317;DHT22;3699;51.462;6.696;2022-07-29T11:20:36;25.10;99.90
7317;DHT22;3699;51.462;6.696;2022-07-29T11:23:22;25.10;99.90
7317;DHT22;3699;51.462;6.696;2022-07-29T11:26:17;25.00;99.90
7317;DHT22;3699;51.462;6.696;2022-07-29T11:28:53;25.00;99.90
7317;DHT22;3699;51.462;6.696;2022-07-29T11:31:33;25.10;99.90
7317;DHT22;3699;51.462;6.696;2022-07-29T11:34:16;25.20;99.90
7317;DHT22;3699;51.462;6.696;2022-07-29T11:37:18;25.10;99.90
7317;DHT22;3699;51.462;6.696;2022-07-29T11:39:46;25.10;99.90
7317;DHT22;3699;51.462;6.696;2022-07-29T11:42:46;25.30;99.90
7317;DHT22;3699;51.462;6.696;2022-07-29T11:45:21;25.60;99.90
7317;DHT22;3699;51.462;6.696;2022-07-29T11:47:54;25.80;99.90
7317;DHT22;3699;51.462;6.696;2022-07-29T11:50:29;25.90;96.70
7317;DHT22;3699;51.462;6.696;2022-07-29T11:52:57;25.90;93.50
7317;DHT22;3699;51.462;6.696;2022-07-29T11:55:25;25.80;91.30
7317;DHT22;3699;51.462;6.696;2022-07-29T11:57:56;25.70;95.00
7317;DHT22;3699;51.462;6.696;2022-07-29T12:00:27;25.60;95.70
7317;DHT22;3699;51.462;6.696;2022-07-29T12:02:55;25.60;94.30
7317;DHT22;3699;51.462;6.696;2022-07-29T12:05:40;25.50;93.10
7317;DHT22;3699;51.462;6.696;2022-07-29T12:08:12;25.40;94.50
7317;DHT22;3699;51.462;6.696;2022-07-29T12:10:40;25.30;98.30
7317;DHT22;3699;51.462;6.696;2022-07-29T12:13:09;25.30;94.40
7317;DHT22;3699;51.462;6.696;2022-07-29T12:15:37;25.20;93.60
7317;DHT22;3699;51.462;6.696;2022-07-29T12:18:15;25.00;95.90
7317;DHT22;3699;51.462;6.696;2022-07-29T12:20:43;24.90;94.80
7317;DHT22;3699;51.462;6.696;2022-07-29T12:23:11;24.80;94.30
7317;DHT22;3699;51.462;6.696;2022-07-29T12:25:43;24.80;95.60
7317;DHT22;3699;51.462;6.696;2022-07-29T12:28:13;24.80;97.70
7317;DHT22;3699;51.462;6.696;2022-07-29T12:30:45;24.90;97.70
7317;DHT22;3699;51.462;6.696;2022-07-29T12:33:17;24.90;97.10
7317;DHT22;3699;51.462;6.696;2022-07-29T12:35:47;24.90;95.30
7317;DHT22;3699;51.462;6.696;2022-07-29T12:38:15;24.90;93.70
7317;DHT22;3699;51.462;6.696;2022-07-29T12:40:43;25.00;93.50
7317;DHT22;3699;51.462;6.696;2022-07-29T12:43:13;25.00;93.90
7317;DHT22;3699;51.462;6.696;2022-07-29T12:45:42;25.00;91.10
7317;DHT22;3699;51.462;6.696;2022-07-29T12:48:09;24.90;92.40
7317;DHT22;3699;51.462;6.696;2022-07-29T12:50:51;24.90;92.30
7317;DHT22;3699;51.462;6.696;2022-07-29T12:53:18;24.90;93.40
7317;DHT22;3699;51.462;6.696;2022-07-29T12:55:47;25.00;92.50
7317;DHT22;3699;51.462;6.696;2022-07-29T12:58:31;25.30;92.50
7317;DHT22;3699;51.462;6.696;2022-07-29T13:01:00;25.60;90.20
7317;DHT22;3699;51.462;6.696;2022-07-29T13:03:27;25.90;88.10
7317;DHT22;3699;51.462;6.696;2022-07-29T13:05:54;26.00;84.30
7317;DHT22;3699;51.462;6.696;2022-07-29T13:08:21;26.00;83.00
7317;DHT22;3699;51.462;6.696;2022-07-29T13:10:48;26.00;84.80
7317;DHT22;3699;51.462;6.696;2022-07-29T13:13:15;25.90;86.10
7317;DHT22;3699;51.462;6.696;2022-07-29T13:15:45;25.70;87.10
7317;DHT22;3699;51.462;6.696;2022-07-29T13:18:29;25.60;82.90
7317;DHT22;3699;51.462;6.696;2022-07-29T13:20:57;25.50;87.50
7317;DHT22;3699;51.462;6.696;2022-07-29T13:23:24;25.40;86.10
7317;DHT22;3699;51.462;6.696;2022-07-29T13:25:51;25.30;90.50
7317;DHT22;3699;51.462;6.696;2022-07-29T13:28:18;25.30;88.10
7317;DHT22;3699;51.462;6.696;2022-07-29T13:30:48;25.30;87.90
7317;DHT22;3699;51.462;6.696;2022-07-29T13:33:15;25.40;90.70
7317;DHT22;3699;51.462;6.696;2022-07-29T13:35:42;25.50;90.10
7317;DHT22;3699;51.462;6.696;2022-07-29T13:38:09;25.60;91.00
7317;DHT22;3699;51.462;6.696;2022-07-29T13:40:36;25.60;91.50
7317;DHT22;3699;51.462;6.696;2022-07-29T13:43:03;25.60;90.50
7317;DHT22;3699;51.462;6.696;2022-07-29T13:45:30;25.60;88.50
7317;DHT22;3699;51.462;6.696;2022-07-29T13:47:58;25.60;88.80
7317;DHT22;3699;51.462;6.696;2022-07-29T13:50:25;25.60;90.50
7317;DHT22;3699;51.462;6.696;2022-07-29T13:52:52;25.60;90.70
7317;DHT22;3699;51.462;6.696;2022-07-29T13:55:19;25.70;90.00
7317;DHT22;3699;51.462;6.696;2022-07-29T13:57:46;25.80;89.00
7317;DHT22;3699;51.462;6.696;2022-07-29T14:00:14;25.80;89.10
7317;DHT22;3699;51.462;6.696;2022-07-29T14:02:41;25.80;88.30
7317;DHT22;3699;51.462;6.696;2022-07-29T14:05:10;26.00;86.20
7317;DHT22;3699;51.462;6.696;2022-07-29T14:07:38;26.10;86.00
7317;DHT22;3699;51.462;6.696;2022-07-29T14:10:06;26.20;86.90
7317;DHT22;3699;51.462;6.696;2022-07-29T14:12:32;26.40;86.10
7317;DHT22;3699;51.462;6.696;2022-07-29T14:15:00;26.70;81.80
7317;DHT22;3699;51.462;6.696;2022-07-29T14:17:27;26.90;77.20
7317;DHT22;3699;51.462;6.696;2022-07-29T14:19:56;27.00;77.80
7317;DHT22;3699;51.462;6.696;2022-07-29T14:22:24;27.00;76.90
7317;DHT22;3699;51.462;6.696;2022-07-29T14:24:51;27.00;76.40
7317;DHT22;3699;51.462;6.696;2022-07-29T14:27:18;27.00;74.30
7317;DHT22;3699;51.462;6.696;2022-07-29T14:29:45;26.90;72.30
7317;DHT22;3699;51.462;6.696;2022-07-29T14:32:12;26.90;69.10
7317;DHT22;3699;51.462;6.696;2022-07-29T14:34:40;26.80;66.30
7317;DHT22;3699;51.462;6.696;2022-07-29T14:37:07;26.70;66.20
7317;DHT22;3699;51.462;6.696;2022-07-29T14:39:36;26.70;68.70
7317;DHT22;3699;51.462;6.696;2022-07-29T14:42:03;26.60;68.30
7317;DHT22;3699;51.462;6.696;2022-07-29T14:44:30;26.60;69.50
7317;DHT22;3699;51.462;6.696;2022-07-29T14:46:57;26.60;70.80
7317;DHT22;3699;51.462;6.696;2022-07-29T14:49:25;26.50;68.60
7317;DHT22;3699;51.462;6.696;2022-07-29T14:51:51;26.40;70.90
7317;DHT22;3699;51.462;6.696;2022-07-29T14:54:18;26.30;70.70
7317;DHT22;3699;51.462;6.696;2022-07-29T14:56:47;26.30;68.60
7317;DHT22;3699;51.462;6.696;2022-07-29T14:59:16;26.20;65.60
7317;DHT22;3699;51.462;6.696;2022-07-29T15:01:43;26.10;61.40
7317;DHT22;3699;51.462;6.696;2022-07-29T15:04:10;25.90;65.20
7317;DHT22;3699;51.462;6.696;2022-07-29T15:06:37;25.80;67.40
7317;DHT22;3699;51.462;6.696;2022-07-29T15:09:04;25.70;67.10
7317;DHT22;3699;51.462;6.696;2022-07-29T15:11:31;25.60;67.10
7317;DHT22;3699;51.462;6.696;2022-07-29T15:13:59;25.60;66.80
7317;DHT22;3699;51.462;6.696;2022-07-29T15:16:27;25.70;64.50
7317;DHT22;3699;51.462;6.696;2022-07-29T15:18:53;25.60;65.60
7317;DHT22;3699;51.462;6.696;2022-07-29T15:21:23;25.70;65.70
7317;DHT22;3699;51.462;6.696;2022-07-29T15:23:50;25.60;64.50
7317;DHT22;3699;51.462;6.696;2022-07-29T15:26:17;25.60;65.90
7317;DHT22;3699;51.462;6.696;2022-07-29T15:28:44;25.60;67.10
7317;DHT22;3699;51.462;6.696;2022-07-29T15:31:13;25.70;67.50
7317;DHT22;3699;51.462;6.696;2022-07-29T15:33:40;25.70;68.20
7317;DHT22;3699;51.462;6.696;2022-07-29T15:36:07;25.80;69.00
7317;DHT22;3699;51.462;6.696;2022-07-29T15:38:34;25.70;68.10
7317;DHT22;3699;51.462;6.696;2022-07-29T15:41:00;25.80;68.20
7317;DHT22;3699;51.462;6.696;2022-07-29T15:43:27;25.90;69.20
7317;DHT22;3699;51.462;6.696;2022-07-29T15:45:54;26.00;69.70
7317;DHT22;3699;51.462;6.696;2022-07-29T15:48:40;26.10;69.70
7317;DHT22;3699;51.462;6.696;2022-07-29T15:51:07;26.00;71.30
7317;DHT22;3699;51.462;6.696;2022-07-29T15:53:34;26.00;71.60
7317;DHT22;3699;51.462;6.696;2022-07-29T15:56:01;26.10;72.60
7317;DHT22;3699;51.462;6.696;2022-07-29T15:58:27;26.20;72.40
7317;DHT22;3699;51.462;6.696;2022-07-29T16:00:55;26.20;70.20
7317;DHT22;3699;51.462;6.696;2022-07-29T16:03:22;26.30;69.50
7317;DHT22;3699;51.462;6.696;2022-07-29T16:05:50;26.30;67.50
7317;DHT22;3699;51.462;6.696;2022-07-29T16:08:17;26.30;68.30
7317;DHT22;3699;51.462;6.696;2022-07-29T16:10:44;26.20;67.70
7317;DHT22;3699;51.462;6.696;2022-07-29T16:13:11;26.20;68.80
7317;DHT22;3699;51.462;6.696;2022-07-29T16:15:37;26.10;70.20
7317;DHT22;3699;51.462;6.696;2022-07-29T16:18:04;26.10;70.70
7317;DHT22;3699;51.462;6.696;2022-07-29T16:20:33;26.00;72.50
7317;DHT22;3699;51.462;6.696;2022-07-29T16:23:01;26.00;71.70